Mount Holly, Ohio
Current Conditions -  °F | °C
As of 12:53 AM on Friday 31 Oct 2014 (Local Time) from KMGY Reporting Station
Overcast Overcast  
Wind Chill: 36°   Ceiling: 9000
Heat Index: 40°   Visibility: 10mi
Dew Point: 35°   Wind: 6mph
Humidity: 83%   Direction: 60°ENE
Pressure: 30.03"   Gusts: NA
Location:  39.5416°N, 84.0704°W
Report Text: KMGY 310453Z AUTO 06005KT 10SM FEW075 BKN090 OVC110 04/02 A3003 RMK AO2 SLP171 T00440017 401220028
Loading
Personal Weather Stations






























Interactive Weather Map
Tropical Storm Tracking
New forecast layout! Learn more

10-Day Weather Forecast

Advertisements
Track Severe Weather on mobile